Time;durP1;ratioP1;P1;durP2;ratioP2;P2;SDS_P1;SDS_P2;PMS_P1;PMS_P2;Temp;Humidity;BMP_temperature;BMP_pressure;BME280_temperature;BME280_humidity;BME280_pressure;Samples;Min_cycle;Max_cycle;Signal;HPM_P1;HPM_P2
2022/01/30 00:01:54;;;;;;;12.23;8.00;;;-6.60;99.90;;;;;;4366818;32;20069;-61
2022/01/30 00:04:20;;;;;;;12.95;7.75;;;-6.70;99.90;;;;;;4378771;32;20072;-61
2022/01/30 00:06:46;;;;;;;12.37;7.30;;;-6.50;99.90;;;;;;4366734;32;20101;-62
2022/01/30 00:09:21;;;;;;;12.05;7.35;;;-6.70;99.90;;;;;;4391022;32;20104;-62
2022/01/30 00:11:56;;;;;;;16.33;8.38;;;-6.70;99.90;;;;;;4379829;32;20065;-62
2022/01/30 00:14:25;;;;;;;13.38;7.62;;;-6.70;99.90;;;;;;4379371;32;20448;-61
2022/01/30 00:16:58;;;;;;;14.95;8.50;;;-6.60;99.90;;;;;;4378610;32;20463;-62
2022/01/30 00:19:34;;;;;;;15.15;8.73;;;-6.60;99.90;;;;;;4391283;32;20062;-60
2022/01/30 00:27:19;;;;;;;14.70;8.52;;;-6.40;99.90;;;;;;4391057;32;20606;-62
2022/01/30 00:29:45;;;;;;;14.02;7.53;;;-6.40;99.90;;;;;;4379244;32;20504;-60
2022/01/30 00:32:12;;;;;;;13.50;8.02;;;-6.40;99.90;;;;;;4391251;32;20523;-60
2022/01/30 00:34:38;;;;;;;14.07;7.75;;;-6.50;99.90;;;;;;4391855;32;20094;-61
2022/01/30 00:37:05;;;;;;;14.70;7.82;;;-6.70;99.90;;;;;;4392762;32;20077;-61
2022/01/30 00:39:31;;;;;;;13.77;7.85;;;-6.80;99.90;;;;;;4392236;32;20066;-60
2022/01/30 00:41:57;;;;;;;13.77;7.78;;;-6.70;99.90;;;;;;4392012;32;20094;-62
2022/01/30 00:44:24;;;;;;;14.93;8.13;;;-6.80;99.90;;;;;;4378969;32;20084;-61
2022/01/30 00:46:51;;;;;;;14.48;8.30;;;-6.70;99.90;;;;;;4390800;32;20085;-61
2022/01/30 00:49:17;;;;;;;15.05;8.93;;;-6.80;99.90;;;;;;4391407;32;20078;-60
2022/01/30 00:51:44;;;;;;;14.70;8.20;;;-6.70;99.90;;;;;;4392671;32;20073;-61
2022/01/30 00:54:10;;;;;;;14.70;8.60;;;-6.80;99.90;;;;;;4392596;32;20082;-61
2022/01/30 00:56:36;;;;;;;12.85;7.70;;;-6.80;99.90;;;;;;4366750;32;20074;-63
2022/01/30 00:59:03;;;;;;;12.82;7.05;;;-6.80;99.90;;;;;;4378393;32;20150;-61
2022/01/30 01:01:29;;;;;;;15.38;8.55;;;-6.80;99.90;;;;;;4366095;32;20179;-62
2022/01/30 01:03:56;;;;;;;15.55;8.63;;;-6.80;99.90;;;;;;4378141;32;20108;-62
2022/01/30 01:06:22;;;;;;;16.62;8.63;;;-6.80;99.90;;;;;;4390744;32;20084;-62
2022/01/30 01:08:52;;;;;;;16.17;8.55;;;-6.80;99.90;;;;;;4390553;32;20154;-61
2022/01/30 01:24:39;;;;;;;13.95;8.00;;;-6.70;99.90;;;;;;4380365;32;20456;-61
2022/01/30 01:27:06;;;;;;;12.93;7.28;;;-6.70;99.90;;;;;;4390139;32;20511;-61
2022/01/30 01:29:32;;;;;;;13.77;7.07;;;-6.70;99.90;;;;;;4378584;32;20088;-62
2022/01/30 01:31:58;;;;;;;14.87;8.18;;;-6.60;99.90;;;;;;4391549;32;20100;-63
2022/01/30 01:34:32;;;;;;;13.40;7.62;;;-6.60;99.90;;;;;;4378304;32;20451;-61
2022/01/30 01:36:58;;;;;;;14.48;8.20;;;-6.50;99.90;;;;;;4391693;32;20086;-61
2022/01/30 01:39:25;;;;;;;12.60;7.62;;;-6.50;99.90;;;;;;4377992;32;20154;-60
2022/01/30 01:41:52;;;;;;;14.02;7.87;;;-6.40;99.90;;;;;;4391786;32;20082;-61
2022/01/30 01:44:31;;;;;;;12.20;7.22;;;-6.40;99.90;;;;;;4378880;32;20149;-62
2022/01/30 01:46:58;;;;;;;12.77;7.15;;;-6.40;99.90;;;;;;4390577;32;20078;-61
2022/01/30 01:49:29;;;;;;;12.55;7.22;;;-6.30;99.90;;;;;;4390390;32;20672;-61
2022/01/30 01:52:30;;;;;;;10.73;6.28;;;-6.30;99.90;;;;;;4381372;32;20089;-62
2022/01/30 01:54:53;;;;;;;12.82;7.40;;;-6.20;99.90;;;;;;4388973;32;20070;-60
2022/01/30 01:57:21;;;;;;;12.65;7.15;;;-6.10;99.90;;;;;;4390579;32;20074;-62
2022/01/30 01:59:48;;;;;;;12.50;7.55;;;-6.10;99.90;;;;;;4364590;32;20081;-64
2022/01/30 02:02:15;;;;;;;13.60;7.43;;;-6.10;99.90;;;;;;4389776;32;20081;-61
2022/01/30 02:04:43;;;;;;;12.95;7.53;;;-6.10;99.90;;;;;;4390088;32;20082;-63
2022/01/30 02:07:57;;;;;;;11.90;7.10;;;-6.00;99.90;;;;;;4377316;32;20184;-61
2022/01/30 02:10:27;;;;;;;10.15;6.53;;;-5.90;99.90;;;;;;4390779;32;20082;-61
2022/01/30 02:12:56;;;;;;;10.50;6.95;;;-5.90;99.90;;;;;;4378730;32;20170;-62
2022/01/30 02:26:04;;;;;;;14.32;7.53;;;-5.70;99.90;;;;;;4390468;32;20137;-62
2022/01/30 02:28:33;;;;;;;12.60;8.00;;;-5.80;99.90;;;;;;4377637;32;20082;-61
2022/01/30 02:31:08;;;;;;;12.90;7.50;;;-6.10;99.90;;;;;;4377782;32;20074;-62
2022/01/30 02:33:34;;;;;;;11.90;7.35;;;-5.90;99.90;;;;;;4389683;32;20081;-61
2022/01/30 02:36:01;;;;;;;13.35;7.65;;;-5.80;99.90;;;;;;4391074;32;20081;-62
2022/01/30 02:38:28;;;;;;;12.30;7.15;;;-5.80;99.90;;;;;;4390001;32;20074;-62
2022/01/30 02:40:57;;;;;;;12.35;7.10;;;-5.70;99.90;;;;;;4389383;32;20100;-62
2022/01/30 02:43:29;;;;;;;12.88;7.00;;;-5.60;99.90;;;;;;4377356;32;20092;-62
2022/01/30 02:46:06;;;;;;;10.20;6.50;;;-5.40;99.90;;;;;;4378094;32;20109;-61
2022/01/30 02:48:50;;;;;;;9.65;6.22;;;-5.40;99.90;;;;;;4378412;32;20154;-62
2022/01/30 02:51:19;;;;;;;8.52;5.87;;;-5.50;99.90;;;;;;4378077;32;20125;-61
2022/01/30 02:53:54;;;;;;;10.82;6.47;;;-5.40;99.90;;;;;;4377757;32;20084;-60
2022/01/30 02:56:22;;;;;;;10.30;6.47;;;-5.40;99.90;;;;;;4389538;32;20087;-61
2022/01/30 02:58:48;;;;;;;10.68;6.10;;;-5.40;99.90;;;;;;4389667;32;20191;-63
2022/01/30 03:01:15;;;;;;;10.45;6.72;;;-5.30;99.90;;;;;;4388963;32;20159;-61
2022/01/30 03:03:41;;;;;;;9.73;5.78;;;-5.40;99.90;;;;;;4376816;32;20098;-61
2022/01/30 03:06:07;;;;;;;11.60;6.65;;;-5.40;99.90;;;;;;4377286;32;20078;-61
2022/01/30 03:08:34;;;;;;;10.18;6.03;;;-5.30;99.90;;;;;;4391492;32;20073;-62
2022/01/30 03:11:01;;;;;;;10.93;5.80;;;-5.50;99.90;;;;;;4393778;32;20166;-61
2022/01/30 03:13:27;;;;;;;9.27;5.93;;;-5.40;99.90;;;;;;4392760;32;20092;-61
2022/01/30 03:15:55;;;;;;;10.95;5.72;;;-5.40;99.90;;;;;;4396796;32;20077;-62
2022/01/30 03:18:22;;;;;;;11.60;6.30;;;-5.40;99.90;;;;;;4379976;32;20086;-62
2022/01/30 03:20:49;;;;;;;11.43;6.87;;;-5.40;99.90;;;;;;4392458;32;20090;-62
2022/01/30 03:23:15;;;;;;;11.77;6.53;;;-5.30;99.90;;;;;;4392006;32;20462;-62
2022/01/30 03:25:41;;;;;;;10.55;6.32;;;-5.30;99.90;;;;;;4393631;32;20082;-62
2022/01/30 03:28:08;;;;;;;10.68;6.57;;;-5.30;99.90;;;;;;4393307;32;20085;-63
2022/01/30 03:30:36;;;;;;;10.45;6.57;;;-5.30;99.90;;;;;;4379085;32;20078;-62
2022/01/30 03:33:02;;;;;;;12.02;6.37;;;-5.30;99.90;;;;;;4391957;32;20115;-62
2022/01/30 03:35:29;;;;;;;11.48;6.22;;;-5.20;99.90;;;;;;4391877;32;20074;-63
2022/01/30 03:37:55;;;;;;;11.32;6.65;;;-5.20;99.90;;;;;;4379498;32;20081;-62
2022/01/30 03:40:22;;;;;;;12.02;6.70;;;-5.10;99.90;;;;;;4379045;32;20086;-62
2022/01/30 03:42:48;;;;;;;9.93;6.30;;;-5.20;99.90;;;;;;4393034;32;20491;-60
2022/01/30 03:45:14;;;;;;;11.55;6.55;;;-5.20;99.90;;;;;;4392066;32;20065;-62
2022/01/30 03:47:41;;;;;;;11.80;6.72;;;-5.20;99.90;;;;;;4393205;32;20089;-62
2022/01/30 03:50:08;;;;;;;11.65;6.97;;;-5.20;99.90;;;;;;4391513;32;20158;-65
2022/01/30 03:52:34;;;;;;;11.48;7.05;;;-5.20;99.90;;;;;;4391603;32;20096;-61
2022/01/30 03:55:00;;;;;;;11.32;6.72;;;-5.30;99.90;;;;;;4391549;32;20066;-61
2022/01/30 03:57:27;;;;;;;10.63;6.37;;;-5.20;99.90;;;;;;4391868;32;20185;-62
2022/01/30 03:59:53;;;;;;;11.10;6.85;;;-5.30;99.90;;;;;;4391050;32;20175;-61
2022/01/30 04:02:20;;;;;;;10.95;6.18;;;-5.20;99.90;;;;;;4393458;32;20085;-61
2022/01/30 04:04:46;;;;;;;10.30;6.05;;;-5.10;99.90;;;;;;4379061;32;20085;-61
2022/01/30 04:07:13;;;;;;;14.52;7.22;;;-5.20;99.90;;;;;;4378796;32;20444;-61
2022/01/30 04:09:40;;;;;;;12.52;7.12;;;-5.20;99.90;;;;;;4392021;32;20070;-62
2022/01/30 04:12:07;;;;;;;12.90;7.18;;;-5.20;99.90;;;;;;4393107;32;20077;-62
2022/01/30 04:14:34;;;;;;;13.35;7.03;;;-5.10;99.90;;;;;;4378646;32;20096;-62
2022/01/30 04:17:00;;;;;;;12.75;6.87;;;-5.10;99.90;;;;;;4378835;32;20101;-62
2022/01/30 04:19:27;;;;;;;12.80;6.72;;;-5.10;99.90;;;;;;4378735;32;20089;-61
2022/01/30 04:21:54;;;;;;;9.23;5.97;;;-5.20;99.90;;;;;;4378609;32;20076;-60
2022/01/30 04:24:20;;;;;;;11.02;6.95;;;-5.10;99.90;;;;;;4391295;32;20077;-62
2022/01/30 04:26:46;;;;;;;11.10;6.65;;;-5.10;99.90;;;;;;4391117;32;20075;-62
2022/01/30 04:29:13;;;;;;;11.32;6.40;;;-5.20;99.90;;;;;;4391211;32;20077;-62
2022/01/30 04:31:42;;;;;;;12.60;6.95;;;-5.20;99.90;;;;;;4391069;32;20069;-62
2022/01/30 04:34:10;;;;;;;10.15;6.25;;;-5.00;99.90;;;;;;4391116;32;20455;-61
2022/01/30 04:36:43;;;;;;;12.32;6.62;;;-5.10;99.90;;;;;;4378858;32;20093;-62
2022/01/30 04:39:28;;;;;;;9.50;6.10;;;-5.00;99.90;;;;;;4391018;32;20534;-62
2022/01/30 04:42:07;;;;;;;10.95;6.30;;;-4.90;99.90;;;;;;4393358;32;20077;-62
2022/01/30 04:53:05;;;;;;;11.25;6.20;;;-4.90;99.90;;;;;;4392484;32;20069;-61
2022/01/30 05:03:30;;;;;;;11.30;5.93;;;-4.90;99.90;;;;;;4391241;32;20506;-61
2022/01/30 05:08:24;;;;;;;12.23;6.37;;;-4.90;99.90;;;;;;4390789;32;20088;-61
2022/01/30 05:10:50;;;;;;;11.50;6.68;;;-4.80;99.90;;;;;;4378402;32;20078;-62
2022/01/30 05:13:20;;;;;;;10.75;6.30;;;-4.60;99.90;;;;;;4378036;32;20080;-62
2022/01/30 05:15:47;;;;;;;11.75;6.75;;;-4.60;99.90;;;;;;4390991;32;20093;-62
2022/01/30 05:18:23;;;;;;;12.10;6.97;;;-4.50;99.90;;;;;;4390607;32;20085;-61
2022/01/30 05:20:49;;;;;;;11.23;6.12;;;-4.60;99.90;;;;;;4378145;32;20424;-62
2022/01/30 05:23:17;;;;;;;11.90;6.93;;;-4.50;99.90;;;;;;4390080;32;20082;-61
2022/01/30 05:25:48;;;;;;;9.23;5.57;;;-4.50;99.90;;;;;;4365651;32;20104;-61
2022/01/30 05:28:17;;;;;;;10.63;5.97;;;-4.50;99.90;;;;;;4378330;32;20078;-61
2022/01/30 05:30:44;;;;;;;11.88;6.28;;;-4.40;99.90;;;;;;4391844;32;20085;-62
2022/01/30 05:33:14;;;;;;;11.48;6.93;;;-4.40;99.90;;;;;;4381299;32;20083;-61
2022/01/30 05:35:41;;;;;;;12.23;6.82;;;-4.30;99.90;;;;;;4388779;32;20092;-61
2022/01/30 05:38:08;;;;;;;11.02;6.47;;;-4.40;99.90;;;;;;4396195;32;20097;-61
2022/01/30 05:40:36;;;;;;;11.82;6.78;;;-4.20;99.90;;;;;;4377694;32;20085;-60
2022/01/30 05:43:04;;;;;;;11.12;6.50;;;-4.40;99.90;;;;;;4391646;32;20081;-61
2022/01/30 05:45:36;;;;;;;10.98;6.05;;;-4.40;99.90;;;;;;4377494;32;20091;-62
2022/01/30 05:48:08;;;;;;;11.98;6.93;;;-4.50;99.90;;;;;;4390224;32;20082;-62
2022/01/30 05:50:35;;;;;;;10.68;6.37;;;-4.30;99.90;;;;;;4390290;32;20094;-61
2022/01/30 05:53:03;;;;;;;11.32;6.50;;;-4.30;99.90;;;;;;4389858;32;20084;-62
2022/01/30 05:55:31;;;;;;;12.25;6.62;;;-4.20;99.90;;;;;;4389953;32;20078;-62
2022/01/30 05:57:58;;;;;;;11.82;6.97;;;-4.20;99.90;;;;;;4377532;32;20066;-62
2022/01/30 06:00:25;;;;;;;11.40;6.47;;;-4.20;99.90;;;;;;4377520;32;20093;-61
2022/01/30 06:02:51;;;;;;;11.48;6.82;;;-4.20;99.90;;;;;;4389740;32;20083;-61
2022/01/30 06:05:20;;;;;;;11.35;7.12;;;-4.10;99.90;;;;;;4389564;32;20464;-62
2022/01/30 06:07:51;;;;;;;12.30;6.53;;;-3.90;99.90;;;;;;4391505;32;20081;-61
2022/01/30 06:10:20;;;;;;;11.25;6.78;;;-3.90;99.90;;;;;;4391202;32;20157;-61
2022/01/30 06:12:46;;;;;;;12.55;6.82;;;-3.80;99.90;;;;;;4377794;32;20073;-62
2022/01/30 06:15:13;;;;;;;9.85;6.45;;;-3.60;99.90;;;;;;4389849;32;20530;-61
2022/01/30 06:17:42;;;;;;;12.90;7.07;;;-3.50;99.90;;;;;;4389880;32;20074;-62
2022/01/30 06:20:09;;;;;;;12.02;6.45;;;-3.50;99.90;;;;;;4390216;32;20169;-60
2022/01/30 06:22:37;;;;;;;11.85;6.80;;;-3.80;99.90;;;;;;4377315;32;20073;-61
2022/01/30 06:25:05;;;;;;;9.95;6.00;;;-3.90;99.90;;;;;;4389634;32;20178;-62
2022/01/30 06:27:31;;;;;;;10.52;6.90;;;-3.70;99.90;;;;;;4389859;32;20090;-62
2022/01/30 06:29:57;;;;;;;11.10;6.75;;;-3.70;99.90;;;;;;4391294;32;20089;-62
2022/01/30 06:32:24;;;;;;;10.48;6.10;;;-3.70;99.90;;;;;;4390728;32;20083;-61
2022/01/30 06:34:50;;;;;;;11.25;6.90;;;-3.50;99.90;;;;;;4390101;32;20508;-62
2022/01/30 06:37:17;;;;;;;10.95;6.60;;;-3.40;99.90;;;;;;4377004;32;20058;-61
2022/01/30 06:39:43;;;;;;;10.70;5.82;;;-3.30;99.90;;;;;;4391116;32;20080;-63
2022/01/30 06:42:09;;;;;;;11.38;6.40;;;-3.20;99.90;;;;;;4377484;32;20103;-61
2022/01/30 06:44:37;;;;;;;10.70;6.57;;;-3.30;99.90;;;;;;4380239;32;20571;-62
2022/01/30 06:47:05;;;;;;;11.68;6.20;;;-3.20;99.90;;;;;;4393090;32;20089;-61
2022/01/30 06:49:31;;;;;;;11.95;7.05;;;-3.30;99.90;;;;;;4380492;32;20166;-61
2022/01/30 06:51:58;;;;;;;11.40;6.57;;;-2.90;99.90;;;;;;4380311;32;20076;-61
2022/01/30 06:54:24;;;;;;;10.90;6.35;;;-2.60;99.90;;;;;;4381681;32;20078;-62
2022/01/30 06:56:50;;;;;;;10.40;6.18;;;-2.60;99.90;;;;;;4392647;32;20101;-61
2022/01/30 06:59:17;;;;;;;11.45;6.47;;;-2.60;99.90;;;;;;4392257;32;20092;-61
2022/01/30 07:01:43;;;;;;;11.45;6.78;;;-2.50;99.90;;;;;;4392463;32;20077;-61
2022/01/30 07:04:10;;;;;;;11.52;6.78;;;-2.40;99.90;;;;;;4394106;32;20157;-62
2022/01/30 07:06:36;;;;;;;11.10;6.75;;;-2.40;99.90;;;;;;4379683;32;20077;-61
2022/01/30 07:09:03;;;;;;;11.10;6.62;;;-2.50;99.90;;;;;;4392090;32;20597;-61
2022/01/30 07:11:29;;;;;;;11.75;6.80;;;-2.70;99.90;;;;;;4393973;32;20073;-61
2022/01/30 07:13:55;;;;;;;11.20;6.37;;;-2.30;99.90;;;;;;4392526;32;20097;-63
2022/01/30 07:16:21;;;;;;;11.60;6.45;;;-2.40;99.90;;;;;;4393821;32;20166;-62
2022/01/30 07:18:48;;;;;;;12.23;6.35;;;-2.40;99.90;;;;;;4392763;32;20082;-61
2022/01/30 07:21:14;;;;;;;16.17;7.40;;;-2.40;99.90;;;;;;4392184;32;20148;-62
2022/01/30 07:23:41;;;;;;;11.02;5.90;;;-2.10;99.90;;;;;;4392410;32;20088;-61
2022/01/30 07:26:09;;;;;;;10.02;6.00;;;-2.10;99.90;;;;;;4392458;32;20070;-61
2022/01/30 07:28:35;;;;;;;10.88;6.07;;;-2.00;99.90;;;;;;4393512;32;20190;-63
2022/01/30 07:31:02;;;;;;;10.35;6.18;;;-1.70;99.90;;;;;;4395207;32;20088;-68
2022/01/30 07:33:28;;;;;;;10.48;6.22;;;-1.50;99.90;;;;;;4396171;32;20086;-62
2022/01/30 07:35:57;;;;;;;8.63;5.37;;;-1.60;99.90;;;;;;4393954;32;20100;-60
2022/01/30 07:38:24;;;;;;;10.40;6.47;;;-1.80;99.90;;;;;;4392654;32;20145;-62
2022/01/30 07:40:51;;;;;;;10.77;5.87;;;-2.20;99.90;;;;;;4379241;32;20081;-61
2022/01/30 07:43:18;;;;;;;9.98;5.72;;;-2.30;99.90;;;;;;4392222;32;20070;-62
2022/01/30 07:45:44;;;;;;;8.38;5.32;;;-2.40;99.90;;;;;;4392247;32;20171;-62
2022/01/30 07:48:11;;;;;;;9.27;5.47;;;-2.30;99.90;;;;;;4391912;32;20088;-60
2022/01/30 07:50:37;;;;;;;9.88;6.05;;;-2.10;99.90;;;;;;4392491;32;20089;-60
2022/01/30 07:53:03;;;;;;;11.25;6.28;;;-2.00;99.90;;;;;;4397094;32;20077;-66
2022/01/30 07:55:30;;;;;;;4.85;3.12;;;-1.90;99.90;;;;;;4391882;32;20150;-61
2022/01/30 07:57:56;;;;;;;6.53;3.45;;;-1.50;99.90;;;;;;4392200;32;20085;-62
2022/01/30 08:00:23;;;;;;;5.55;2.47;;;-2.00;99.90;;;;;;4391207;32;20179;-62
2022/01/30 08:02:50;;;;;;;8.93;5.15;;;-2.10;99.90;;;;;;4366816;32;20101;-62
2022/01/30 08:05:16;;;;;;;10.00;6.00;;;-2.30;99.90;;;;;;4378859;32;20090;-63
2022/01/30 08:07:43;;;;;;;7.53;4.28;;;-2.00;99.90;;;;;;4391215;32;20507;-63
2022/01/30 08:10:09;;;;;;;8.65;4.32;;;-2.10;99.90;;;;;;4379244;32;20154;-62
2022/01/30 08:12:37;;;;;;;5.47;3.25;;;-1.90;99.90;;;;;;4391344;32;20104;-63
2022/01/30 08:15:05;;;;;;;6.87;3.65;;;-2.10;99.90;;;;;;4391369;32;20164;-62
2022/01/30 08:17:33;;;;;;;9.05;5.37;;;-2.30;99.90;;;;;;4391061;32;20149;-61
2022/01/30 08:19:59;;;;;;;9.88;6.12;;;-2.10;99.90;;;;;;4391639;32;20097;-62
2022/01/30 08:22:29;;;;;;;10.73;5.80;;;-2.20;99.90;;;;;;4378194;32;20092;-61
2022/01/30 08:24:55;;;;;;;8.60;5.45;;;-1.90;99.90;;;;;;4392225;32;20098;-60
2022/01/30 08:27:22;;;;;;;9.65;5.62;;;-1.80;99.90;;;;;;4378331;32;20089;-62
2022/01/30 08:29:48;;;;;;;9.73;5.80;;;-1.80;99.90;;;;;;4390446;32;20083;-62
2022/01/30 08:32:15;;;;;;;13.07;7.07;;;-1.50;99.90;;;;;;4378060;32;20070;-62
2022/01/30 08:34:42;;;;;;;9.27;5.40;;;-1.40;99.90;;;;;;4392101;32;20093;-61
2022/01/30 08:37:08;;;;;;;10.68;6.10;;;-1.30;99.90;;;;;;4391444;32;20067;-62
2022/01/30 08:39:35;;;;;;;9.35;5.18;;;-2.00;99.90;;;;;;4391243;32;20088;-62
2022/01/30 08:42:02;;;;;;;11.15;5.60;;;-1.70;99.90;;;;;;4365991;32;20089;-61
2022/01/30 08:44:28;;;;;;;8.52;5.22;;;-1.80;99.90;;;;;;4392372;32;20523;-62
2022/01/30 08:46:54;;;;;;;9.18;5.65;;;-1.80;99.90;;;;;;4390782;32;20090;-63
2022/01/30 08:49:21;;;;;;;9.38;5.70;;;-1.60;99.90;;;;;;4392383;32;20081;-62
2022/01/30 08:51:47;;;;;;;9.07;5.40;;;-1.80;99.90;;;;;;4378434;32;20176;-62
2022/01/30 08:54:13;;;;;;;10.88;5.82;;;-1.50;99.90;;;;;;4390832;32;20089;-63
2022/01/30 08:56:40;;;;;;;8.27;5.37;;;-1.50;99.90;;;;;;4392485;32;20069;-62
2022/01/30 08:59:06;;;;;;;8.85;5.40;;;-1.30;99.90;;;;;;4391739;32;20072;-63
2022/01/30 09:01:33;;;;;;;9.35;5.10;;;-1.30;99.90;;;;;;4390221;32;20158;-61
2022/01/30 09:03:59;;;;;;;9.85;5.97;;;-1.40;99.90;;;;;;4377946;32;20101;-62
2022/01/30 09:06:26;;;;;;;8.88;5.22;;;-1.20;99.90;;;;;;4390270;32;20094;-60
2022/01/30 09:08:52;;;;;;;8.02;5.45;;;-1.30;99.90;;;;;;4378124;32;20093;-62
2022/01/30 09:11:19;;;;;;;10.50;5.90;;;-1.30;99.90;;;;;;4391950;32;20093;-62
2022/01/30 09:13:45;;;;;;;9.15;5.28;;;-0.90;99.90;;;;;;4377899;32;20138;-62
2022/01/30 09:16:11;;;;;;;8.90;5.37;;;-1.20;99.90;;;;;;4365690;32;20100;-61
2022/01/30 09:18:39;;;;;;;10.88;5.90;;;-1.30;99.90;;;;;;4391840;32;20532;-61
2022/01/30 09:21:05;;;;;;;19.12;10.60;;;-1.20;99.90;;;;;;4390054;32;20101;-62
2022/01/30 09:23:32;;;;;;;17.17;9.98;;;-2.00;99.90;;;;;;4377904;32;20490;-61
2022/01/30 09:25:58;;;;;;;16.90;10.35;;;-2.40;99.90;;;;;;4391890;32;20086;-61
2022/01/30 09:28:24;;;;;;;16.25;10.50;;;-2.50;99.90;;;;;;4390146;32;20534;-63
2022/01/30 09:30:51;;;;;;;18.33;10.75;;;-2.60;99.90;;;;;;4390326;32;20070;-62
2022/01/30 09:33:17;;;;;;;18.15;11.23;;;-2.70;99.90;;;;;;4391841;32;20082;-61
2022/01/30 09:35:45;;;;;;;18.37;10.95;;;-2.70;99.90;;;;;;4365257;32;20086;-62
2022/01/30 09:38:11;;;;;;;20.55;11.07;;;-2.80;99.90;;;;;;4378125;32;20089;-62
2022/01/30 09:40:38;;;;;;;17.70;10.68;;;-2.90;99.90;;;;;;4391274;32;20082;-62
2022/01/30 09:43:04;;;;;;;19.52;11.25;;;-3.00;99.90;;;;;;4391454;32;20101;-61
2022/01/30 09:45:31;;;;;;;20.58;11.10;;;-3.00;99.90;;;;;;4377760;32;20105;-61
2022/01/30 09:47:58;;;;;;;18.98;11.77;;;-3.00;99.90;;;;;;4377674;32;20092;-63
2022/01/30 09:50:25;;;;;;;20.15;11.12;;;-3.00;99.90;;;;;;4389824;32;20553;-62
2022/01/30 09:52:51;;;;;;;20.27;11.75;;;-2.90;99.90;;;;;;4390173;32;20081;-61
2022/01/30 09:55:17;;;;;;;20.60;11.75;;;-3.10;99.90;;;;;;4377268;32;20588;-61
2022/01/30 09:57:44;;;;;;;21.92;11.75;;;-3.00;99.90;;;;;;4391754;32;20065;-63
2022/01/30 10:00:12;;;;;;;19.87;11.25;;;-3.00;99.90;;;;;;4389770;32;20093;-62
2022/01/30 10:02:45;;;;;;;20.17;11.12;;;-2.70;99.90;;;;;;4366442;32;20158;-61
2022/01/30 10:05:13;;;;;;;18.70;11.12;;;-2.80;99.90;;;;;;4377514;32;20082;-62
2022/01/30 10:07:52;;;;;;;19.10;10.77;;;-2.60;99.90;;;;;;4388123;32;20162;-62
2022/01/30 10:10:23;;;;;;;19.27;11.93;;;-2.20;99.90;;;;;;4388841;32;20074;-63
2022/01/30 10:13:11;;;;;;;21.45;11.60;;;-2.50;99.90;;;;;;4381045;32;20112;-62
2022/01/30 10:15:56;;;;;;;18.80;10.48;;;-2.50;99.90;;;;;;4393781;32;20054;-62
2022/01/30 10:18:27;;;;;;;20.25;11.43;;;-2.90;99.90;;;;;;4393361;32;20157;-62
2022/01/30 10:20:53;;;;;;;21.00;11.15;;;-2.80;99.90;;;;;;4380282;32;20153;-62
2022/01/30 10:23:31;;;;;;;17.75;10.95;;;-2.90;99.90;;;;;;4380222;32;20094;-62
2022/01/30 10:25:57;;;;;;;18.80;11.00;;;-3.00;99.90;;;;;;4392896;32;20150;-62
2022/01/30 10:28:30;;;;;;;21.33;10.98;;;-2.80;99.90;;;;;;4380322;32;20085;-61
2022/01/30 10:31:06;;;;;;;23.77;11.63;;;-3.00;99.90;;;;;;4392738;32;20074;-62
2022/01/30 10:33:45;;;;;;;27.23;13.38;;;-3.00;99.90;;;;;;4392934;32;20066;-62
2022/01/30 10:36:18;;;;;;;30.77;13.75;;;-3.00;99.90;;;;;;4380074;32;20086;-62
2022/01/30 10:38:49;;;;;;;31.17;14.80;;;-2.90;99.90;;;;;;4376830;32;20156;-60
2022/01/30 10:41:20;;;;;;;39.55;16.62;;;-2.80;99.90;;;;;;4378033;32;20479;-63
2022/01/30 10:44:05;;;;;;;38.38;17.30;;;-2.80;99.90;;;;;;4390151;32;20192;-62
2022/01/30 10:46:48;;;;;;;36.90;16.23;;;-3.00;99.90;;;;;;4377395;32;20565;-62
2022/01/30 10:49:22;;;;;;;25.33;13.30;;;-2.90;99.90;;;;;;4378119;32;20089;-61
2022/01/30 10:51:54;;;;;;;22.90;10.90;;;-3.00;99.90;;;;;;4365316;32;20069;-61
2022/01/30 10:54:21;;;;;;;21.35;11.32;;;-2.80;99.90;;;;;;4377219;32;20528;-62
2022/01/30 10:56:47;;;;;;;24.17;12.32;;;-2.70;99.90;;;;;;4377255;32;20161;-62
2022/01/30 10:59:21;;;;;;;23.02;11.80;;;-2.70;99.90;;;;;;4377114;32;20510;-62
2022/01/30 11:01:51;;;;;;;21.37;11.40;;;-2.90;99.90;;;;;;4389842;32;20156;-62
2022/01/30 11:04:30;;;;;;;24.90;13.15;;;-2.90;99.90;;;;;;4352208;32;20081;-63
2022/01/30 11:07:00;;;;;;;25.25;12.98;;;-3.10;99.90;;;;;;4364931;32;20093;-63
2022/01/30 11:09:36;;;;;;;27.05;14.18;;;-3.10;99.90;;;;;;4377116;32;20066;-61
2022/01/30 11:12:09;;;;;;;24.20;13.35;;;-3.00;99.90;;;;;;4377734;32;20082;-63
2022/01/30 11:14:53;;;;;;;30.80;14.75;;;-2.80;99.90;;;;;;4377529;32;20550;-63
2022/01/30 11:17:22;;;;;;;31.85;15.95;;;-2.80;99.90;;;;;;4377446;32;20159;-63
2022/01/30 11:19:56;;;;;;;30.33;14.25;;;-2.90;99.90;;;;;;4377237;32;20170;-61
2022/01/30 11:22:25;;;;;;;24.17;13.48;;;-2.80;99.90;;;;;;4376909;32;20085;-63
2022/01/30 11:25:09;;;;;;;23.48;12.88;;;-3.10;99.90;;;;;;4364480;32;20085;-61
2022/01/30 11:27:42;;;;;;;25.62;13.32;;;-3.00;99.90;;;;;;4389475;32;20066;-62
2022/01/30 11:30:11;;;;;;;25.52;13.50;;;-2.90;99.90;;;;;;4364210;32;20078;-62
2022/01/30 11:32:39;;;;;;;26.50;12.20;;;-3.00;99.90;;;;;;4389700;32;20093;-63
2022/01/30 11:35:07;;;;;;;25.20;12.05;;;-3.20;99.90;;;;;;4378299;32;20084;-62
2022/01/30 11:37:39;;;;;;;21.48;11.25;;;-3.10;99.90;;;;;;4389225;32;20074;-62
2022/01/30 11:40:18;;;;;;;20.75;10.75;;;-3.20;99.90;;;;;;4377393;32;20089;-61
2022/01/30 11:42:49;;;;;;;20.23;11.23;;;-3.10;99.90;;;;;;4376770;32;20104;-61
2022/01/30 11:45:27;;;;;;;20.45;11.38;;;-3.00;99.90;;;;;;4377110;32;20100;-61
2022/01/30 11:47:55;;;;;;;21.40;11.50;;;-3.20;99.90;;;;;;4364805;32;20156;-63
2022/01/30 11:50:29;;;;;;;20.33;11.82;;;-3.20;99.90;;;;;;4377205;32;20088;-62
2022/01/30 11:53:28;;;;;;;24.58;12.75;;;-3.00;99.90;;;;;;4376436;32;20096;-64
2022/01/30 11:56:00;;;;;;;22.83;11.95;;;-3.40;99.90;;;;;;4364296;32;20528;-64
2022/01/30 11:58:38;;;;;;;23.98;11.48;;;-3.50;99.90;;;;;;4364142;32;20070;-63
2022/01/30 12:01:14;;;;;;;20.80;10.35;;;-3.30;99.90;;;;;;4376439;32;20085;-63
2022/01/30 12:03:59;;;;;;;19.30;10.85;;;-3.10;99.90;;;;;;4376929;32;20086;-62
2022/01/30 12:06:25;;;;;;;21.83;11.75;;;-3.10;99.90;;;;;;4388887;32;20073;-62
2022/01/30 12:08:57;;;;;;;17.92;10.60;;;-3.10;99.90;;;;;;4388878;32;20082;-63
2022/01/30 12:11:43;;;;;;;17.27;9.25;;;-3.20;99.90;;;;;;4351409;32;20074;-62
2022/01/30 12:14:31;;;;;;;19.37;9.52;;;-3.40;99.90;;;;;;4378141;32;20074;-62
2022/01/30 12:17:05;;;;;;;16.05;9.48;;;-3.20;99.90;;;;;;4376437;32;20131;-63
2022/01/30 12:19:51;;;;;;;19.08;10.00;;;-3.20;99.90;;;;;;4364713;32;20170;-63
2022/01/30 12:22:18;;;;;;;17.02;9.70;;;-3.20;99.90;;;;;;4368157;32;20162;-63
2022/01/30 12:24:51;;;;;;;20.30;10.38;;;-3.30;99.90;;;;;;4376290;32;20074;-62
2022/01/30 12:27:18;;;;;;;21.17;10.18;;;-3.40;99.90;;;;;;4375945;32;20078;-63
2022/01/30 12:29:48;;;;;;;18.75;9.95;;;-3.20;99.90;;;;;;4376357;32;20093;-62
2022/01/30 12:32:20;;;;;;;18.77;10.45;;;-3.20;99.90;;;;;;4376443;32;20077;-63
2022/01/30 12:34:56;;;;;;;20.23;10.43;;;-3.30;99.90;;;;;;4376333;32;20102;-63
2022/01/30 12:37:28;;;;;;;21.48;10.70;;;-3.20;99.90;;;;;;4377727;32;20086;-62
2022/01/30 12:39:56;;;;;;;21.85;10.75;;;-3.30;99.90;;;;;;4362727;32;20097;-63
2022/01/30 12:42:26;;;;;;;20.83;10.90;;;-3.40;99.90;;;;;;4388394;32;20141;-63
2022/01/30 12:44:59;;;;;;;22.42;12.07;;;-3.50;99.90;;;;;;4376297;32;20163;-61
2022/01/30 12:47:26;;;;;;;21.95;11.27;;;-3.50;99.90;;;;;;4364139;32;20105;-63
2022/01/30 12:49:56;;;;;;;22.35;10.48;;;-3.50;99.90;;;;;;4388441;32;20188;-62
2022/01/30 12:55:05;;;;;;;22.23;11.60;;;-3.60;99.90;;;;;;4377014;32;20158;-63
2022/01/30 12:57:32;;;;;;;;;;;-3.60;99.90;;;;;;4363990;32;20078;-63
2022/01/30 13:00:01;;;;;;;20.83;11.38;;;-3.60;99.90;;;;;;4375696;32;19962;-62
2022/01/30 13:02:29;;;;;;;21.12;11.45;;;-3.60;99.90;;;;;;4376040;32;20165;-62
2022/01/30 13:05:14;;;;;;;22.33;11.18;;;-3.70;99.90;;;;;;4351020;32;20167;-62
2022/01/30 13:07:53;;;;;;;20.60;11.55;;;-3.80;99.90;;;;;;4377422;32;20062;-61
2022/01/30 13:10:21;;;;;;;20.02;10.98;;;-3.80;99.90;;;;;;4363166;32;20173;-63
2022/01/30 13:12:48;;;;;;;21.05;11.00;;;-3.90;99.90;;;;;;4375313;32;20066;-62
2022/01/30 13:15:23;;;;;;;18.17;10.07;;;-4.10;99.90;;;;;;4362777;32;20159;-62
2022/01/30 13:17:51;;;;;;;21.15;11.50;;;-4.10;99.90;;;;;;4363133;32;20082;-62
2022/01/30 13:20:27;;;;;;;19.80;11.07;;;-4.10;99.90;;;;;;4363096;32;20086;-62
2022/01/30 13:22:55;;;;;;;18.73;10.23;;;-4.10;99.90;;;;;;4388083;32;20140;-62
2022/01/30 13:25:22;;;;;;;23.15;10.98;;;-4.20;99.90;;;;;;4375635;32;20169;-62
2022/01/30 13:27:52;;;;;;;21.02;10.77;;;-4.30;99.90;;;;;;4375922;32;20092;-62
2022/01/30 13:30:25;;;;;;;23.67;10.45;;;-4.30;99.90;;;;;;4388293;32;20531;-63
2022/01/30 13:32:52;;;;;;;19.48;10.02;;;-4.40;99.90;;;;;;4362546;32;20086;-61
2022/01/30 13:35:23;;;;;;;22.92;11.27;;;-4.20;99.90;;;;;;4375394;32;20090;-62
2022/01/30 13:37:51;;;;;;;19.08;10.45;;;-4.30;99.90;;;;;;4375736;32;20068;-62